Time;durP1;ratioP1;P1;durP2;ratioP2;P2;SDS_P1;SDS_P2;PMS_P1;PMS_P2;Temp;Humidity;BMP_temperature;BMP_pressure;BME280_temperature;BME280_humidity;BME280_pressure;Samples;Min_cycle;Max_cycle;Signal;HPM_P1;HPM_P2
2022/10/16 00:00:54;;;;;;;;;;;;;;;;;;5093347;28;1241;-52
2022/10/16 00:03:21;;;;;;;;;;;;;;;;;;5093222;28;2071;-52
2022/10/16 00:05:52;;;;;;;;;;;;;;;;;;5093223;28;1917;-49
2022/10/16 00:08:19;;;;;;;;;;;;;;;;;;5093177;28;2203;-49
2022/10/16 00:10:47;;;;;;;;;;;;;;;;;;5108814;28;2075;-50
2022/10/16 00:13:14;;;;;;;;;;;;;;;;;;5093114;28;1689;-53
2022/10/16 00:15:43;;;;;;;;;;;;;;;;;;5092775;28;1938;-49
2022/10/16 00:18:12;;;;;;;;;;;;;;;;;;5092889;28;1519;-50
2022/10/16 00:20:39;;;;;;;;;;;;;;;;;;5092808;28;1967;-48
2022/10/16 00:23:08;;;;;;;;;;;;;;;;;;5092801;28;1951;-51
2022/10/16 00:25:36;;;;;;;;;;;;;;;;;;5108665;28;1991;-53
2022/10/16 00:28:03;;;;;;;;;;;;;;;;;;5093489;28;1974;-50
2022/10/16 00:30:30;;;;;;;;;;;;;;;;;;5092842;28;1622;-51
2022/10/16 00:32:57;;;;;;;;;;;;;;;;;;5096433;28;1832;-49
2022/10/16 00:35:25;;;;;;;;;;;;;;;;;;5113148;28;2003;-49
2022/10/16 00:37:52;;;;;;;;;;;;;;;;;;5113019;28;1860;-52
2022/10/16 00:40:19;;;;;;;;;;;;;;;;;;5112463;28;2046;-53
2022/10/16 00:42:46;;;;;;;;;;;;;;;;;;5112977;28;1824;-49
2022/10/16 00:45:13;;;;;;;;;;;;;;;;;;5112708;28;2005;-54
2022/10/16 00:47:44;;;;;;;;;;;;;;;;;;5112887;28;1888;-48
2022/10/16 00:50:24;;;;;;;;;;;;;;;;;;5112736;28;2053;-51
2022/10/16 00:52:52;;;;;;;;;;;;;;;;;;5112733;28;1852;-50
2022/10/16 00:55:19;;;;;;;;;;;;;;;;;;5112495;28;1981;-50
2022/10/16 00:57:47;;;;;;;;;;;;;;;;;;5112598;28;2135;-46
2022/10/16 01:00:18;;;;;;;;;;;;;;;;;;5112570;28;1924;-47
2022/10/16 01:02:51;;;;;;;;;;;;;;;;;;5112442;28;1665;-49
2022/10/16 01:05:20;;;;;;;;;;;;;;;;;;5111245;28;1682;-52
2022/10/16 01:07:57;;;;;;;;;;;;;;;;;;5112446;28;2189;-50
2022/10/16 01:10:28;;;;;;;;;;;;;;;;;;5112264;28;1658;-50
2022/10/16 01:12:58;;;;;;;;;;;;;;;;;;5112222;28;1994;-50
2022/10/16 01:15:27;;;;;;;;;;;;;;;;;;5112281;28;1967;-52
2022/10/16 01:18:21;;;;;;;;;;;;;;;;;;5112312;28;2134;-50
2022/10/16 01:20:57;;;;;;;;;;;;;;;;;;5110865;28;1790;-52
2022/10/16 01:23:23;;;;;;;;;;;;;;;;;;5112264;28;1759;-50
2022/10/16 01:26:09;;;;;;;;;;;;;;;;;;5112165;28;1914;-49
2022/10/16 01:28:42;;;;;;;;;;;;;;;;;;5112345;28;1883;-50
2022/10/16 01:31:10;;;;;;;;;;;;;;;;;;5112166;28;2055;-48
2022/10/16 01:33:46;;;;;;;;;;;;;;;;;;5105776;28;1739;-52
2022/10/16 01:36:15;;;;;;;;;;;;;;;;;;5111802;28;1956;-53
2022/10/16 01:38:44;;;;;;;;;;;;;;;;;;5112168;28;2302;-51
2022/10/16 01:41:15;;;;;;;;;;;;;;;;;;5112024;28;2267;-48
2022/10/16 01:43:46;;;;;;;;;;;;;;;;;;5111722;28;1762;-52
2022/10/16 01:46:15;;;;;;;;;;;;;;;;;;5111984;28;1874;-50
2022/10/16 01:48:43;;;;;;;;;;;;;;;;;;5112090;28;1858;-50
2022/10/16 01:51:12;;;;;;;;;;;;;;;;;;5112144;28;1415;-52
2022/10/16 01:53:41;;;;;;;;;;;;;;;;;;5111804;28;2148;-50
2022/10/16 01:56:11;;;;;;;;;;;;;;;;;;5111858;28;1973;-50
2022/10/16 01:58:41;;;;;;;;;;;;;;;;;;5127770;28;1656;-51
2022/10/16 02:01:11;;;;;;;;;;;;;;;;;;5111889;28;1927;-52
2022/10/16 02:03:40;;;;;;;;;;;;;;;;;;5111885;28;2032;-51
2022/10/16 02:06:07;;;;;;;;;;;;;;;;;;5112397;28;1982;-50
2022/10/16 02:08:36;;;;;;;;;;;;;;;;;;5111448;28;1398;-50
2022/10/16 02:11:03;;;;;;;;;;;;;;;;;;5111556;28;1708;-51
2022/10/16 02:13:32;;;;;;;;;;;;;;;;;;5111978;28;2189;-52
2022/10/16 02:16:00;;;;;;;;;;;;;;;;;;5111375;28;1909;-48
2022/10/16 02:18:30;;;;;;;;;;;;;;;;;;5111331;28;1680;-54
2022/10/16 02:21:06;;;;;;;;;;;;;;;;;;5127210;28;2401;-50
2022/10/16 02:23:37;;;;;;;;;;;;;;;;;;5111482;28;1842;-49
2022/10/16 02:26:06;;;;;;;;;;;;;;;;;;5111461;28;2220;-51
2022/10/16 02:28:45;;;;;;;;;;;;;;;;;;5111952;28;1663;-50
2022/10/16 02:31:14;;;;;;;;;;;;;;;;;;5111531;28;1697;-49
2022/10/16 02:33:42;;;;;;;;;;;;;;;;;;5101154;28;1920;-47
2022/10/16 02:36:10;;;;;;;;;;;;;;;;;;5091223;28;2333;-53
2022/10/16 02:38:38;;;;;;;;;;;;;;;;;;5090531;28;2116;-42
2022/10/16 02:41:05;;;;;;;;;;;;;;;;;;5090984;28;1908;-50
2022/10/16 02:43:33;;;;;;;;;;;;;;;;;;5091033;28;1745;-52
2022/10/16 02:46:00;;;;;;;;;;;;;;;;;;5090558;28;2552;-42
2022/10/16 02:48:27;;;;;;;;;;;;;;;;;;5090916;28;1686;-50
2022/10/16 02:50:54;;;;;;;;;;;;;;;;;;5090839;28;1912;-49
2022/10/16 02:53:22;;;;;;;;;;;;;;;;;;5091075;28;1704;-50
2022/10/16 02:55:49;;;;;;;;;;;;;;;;;;5090703;28;2169;-53
2022/10/16 02:58:16;;;;;;;;;;;;;;;;;;5090824;28;1845;-44
2022/10/16 03:00:43;;;;;;;;;;;;;;;;;;5090934;28;2051;-53
2022/10/16 03:03:11;;;;;;;;;;;;;;;;;;5090863;28;1924;-50
2022/10/16 03:05:38;;;;;;;;;;;;;;;;;;5094503;28;1817;-49
2022/10/16 03:08:05;;;;;;;;;;;;;;;;;;5093084;28;1517;-52
2022/10/16 03:10:32;;;;;;;;;;;;;;;;;;5094340;28;2105;-49
2022/10/16 03:12:59;;;;;;;;;;;;;;;;;;5094319;28;2157;-49
2022/10/16 03:15:28;;;;;;;;;;;;;;;;;;5093889;28;1979;-53
2022/10/16 03:17:58;;;;;;;;;;;;;;;;;;5094164;28;1970;-52
2022/10/16 03:20:25;;;;;;;;;;;;;;;;;;5094311;28;1321;-53
2022/10/16 03:22:52;;;;;;;;;;;;;;;;;;5094052;28;1843;-45
2022/10/16 03:25:19;;;;;;;;;;;;;;;;;;5093992;28;2100;-53
2022/10/16 03:27:46;;;;;;;;;;;;;;;;;;5094056;28;2175;-50
2022/10/16 03:30:13;;;;;;;;;;;;;;;;;;5094184;28;2018;-47
2022/10/16 03:32:40;;;;;;;;;;;;;;;;;;5095667;28;1389;-48
2022/10/16 03:35:08;;;;;;;;;;;;;;;;;;5113810;27;2289;-51
2022/10/16 03:37:35;;;;;;;;;;;;;;;;;;5114284;28;1888;-50
2022/10/16 03:40:03;;;;;;;;;;;;;;;;;;5113968;28;2053;-49
2022/10/16 03:42:30;;;;;;;;;;;;;;;;;;5114219;28;2055;-52
2022/10/16 03:44:57;;;;;;;;;;;;;;;;;;5114249;28;1654;-50
2022/10/16 03:47:24;;;;;;;;;;;;;;;;;;5113924;28;1975;-48
2022/10/16 03:49:51;;;;;;;;;;;;;;;;;;5114110;28;1965;-52
2022/10/16 03:52:19;;;;;;;;;;;;;;;;;;5114072;28;1998;-52
2022/10/16 03:54:46;;;;;;;;;;;;;;;;;;5114079;28;2299;-48
2022/10/16 03:57:13;;;;;;;;;;;;;;;;;;5113820;28;1930;-49
2022/10/16 03:59:40;;;;;;;;;;;;;;;;;;5113567;28;2043;-48
2022/10/16 04:02:07;;;;;;;;;;;;;;;;;;5113676;28;2112;-46
2022/10/16 04:04:34;;;;;;;;;;;;;;;;;;5113567;28;2101;-50
2022/10/16 04:07:01;;;;;;;;;;;;;;;;;;5113692;28;1764;-51
2022/10/16 04:09:28;;;;;;;;;;;;;;;;;;5113236;28;1365;-51
2022/10/16 04:11:56;;;;;;;;;;;;;;;;;;5113469;28;1728;-49
2022/10/16 04:14:23;;;;;;;;;;;;;;;;;;5113654;28;2147;-49
2022/10/16 04:16:50;;;;;;;;;;;;;;;;;;5112537;28;1969;-49
2022/10/16 04:19:17;;;;;;;;;;;;;;;;;;5113485;28;1689;-48
2022/10/16 04:21:44;;;;;;;;;;;;;;;;;;5113438;28;1918;-48
2022/10/16 04:24:12;;;;;;;;;;;;;;;;;;5113107;28;2092;-47
2022/10/16 04:26:39;;;;;;;;;;;;;;;;;;5113428;28;2261;-48
2022/10/16 04:29:06;;;;;;;;;;;;;;;;;;5113136;28;2165;-51
2022/10/16 04:31:34;;;;;;;;;;;;;;;;;;5113278;28;1887;-50
2022/10/16 04:34:01;;;;;;;;;;;;;;;;;;5100182;28;1794;-49
2022/10/16 04:36:28;;;;;;;;;;;;;;;;;;5092569;28;2005;-48
2022/10/16 04:38:55;;;;;;;;;;;;;;;;;;5092738;28;1609;-51
2022/10/16 04:41:22;;;;;;;;;;;;;;;;;;5092542;28;1815;-51
2022/10/16 04:43:49;;;;;;;;;;;;;;;;;;5093223;28;2054;-51
2022/10/16 04:46:16;;;;;;;;;;;;;;;;;;5092627;28;1822;-50
2022/10/16 04:48:46;;;;;;;;;;;;;;;;;;5092366;28;1571;-47
2022/10/16 04:51:13;;;;;;;;;;;;;;;;;;5092491;28;1918;-50
2022/10/16 04:53:40;;;;;;;;;;;;;;;;;;5092412;28;1806;-48
2022/10/16 04:56:07;;;;;;;;;;;;;;;;;;5092198;28;1916;-48
2022/10/16 04:58:34;;;;;;;;;;;;;;;;;;5092170;28;1706;-54
2022/10/16 05:01:02;;;;;;;;;;;;;;;;;;5092123;28;2146;-51
2022/10/16 05:03:28;;;;;;;;;;;;;;;;;;5092517;28;1831;-51
2022/10/16 05:05:56;;;;;;;;;;;;;;;;;;5092009;28;2049;-49
2022/10/16 05:08:26;;;;;;;;;;;;;;;;;;5092269;28;1793;-50
2022/10/16 05:10:53;;;;;;;;;;;;;;;;;;5092273;28;1658;-52
2022/10/16 05:13:21;;;;;;;;;;;;;;;;;;5092519;28;1946;-49
2022/10/16 05:15:48;;;;;;;;;;;;;;;;;;5092067;28;1906;-50
2022/10/16 05:18:15;;;;;;;;;;;;;;;;;;5091834;28;2198;-49
2022/10/16 05:20:42;;;;;;;;;;;;;;;;;;5092071;28;1960;-48
2022/10/16 05:23:12;;;;;;;;;;;;;;;;;;5091824;28;1391;-51
2022/10/16 05:25:51;;;;;;;;;;;;;;;;;;5091596;28;1761;-49
2022/10/16 05:28:18;;;;;;;;;;;;;;;;;;5091605;28;2107;-50
2022/10/16 05:30:45;;;;;;;;;;;;;;;;;;5091418;28;1949;-48
2022/10/16 05:33:13;;;;;;;;;;;;;;;;;;5097871;28;1957;-50
2022/10/16 05:35:40;;;;;;;;;;;;;;;;;;5111750;28;2133;-50
2022/10/16 05:38:07;;;;;;;;;;;;;;;;;;5111910;28;2329;-50
2022/10/16 05:40:35;;;;;;;;;;;;;;;;;;5112023;28;1603;-51
2022/10/16 05:43:02;;;;;;;;;;;;;;;;;;5111814;28;1956;-50
2022/10/16 05:45:29;;;;;;;;;;;;;;;;;;5111821;28;1841;-46
2022/10/16 05:47:56;;;;;;;;;;;;;;;;;;5112045;28;1437;-44
2022/10/16 05:50:23;;;;;;;;;;;;;;;;;;5112071;28;2140;-50
2022/10/16 05:52:50;;;;;;;;;;;;;;;;;;5111867;28;1772;-47
2022/10/16 05:55:17;;;;;;;;;;;;;;;;;;5111634;28;1911;-49
2022/10/16 05:57:44;;;;;;;;;;;;;;;;;;5111747;28;1982;-47
2022/10/16 06:00:12;;;;;;;;;;;;;;;;;;5111828;28;1937;-52
2022/10/16 06:02:39;;;;;;;;;;;;;;;;;;5111335;28;1867;-50
2022/10/16 06:05:06;;;;;;;;;;;;;;;;;;5111687;28;2145;-49
2022/10/16 06:07:35;;;;;;;;;;;;;;;;;;5111753;28;2166;-49
2022/10/16 06:10:03;;;;;;;;;;;;;;;;;;5111668;28;2567;-48
2022/10/16 06:12:31;;;;;;;;;;;;;;;;;;5111476;28;1369;-53
2022/10/16 06:14:58;;;;;;;;;;;;;;;;;;5111685;28;2118;-52
2022/10/16 06:17:25;;;;;;;;;;;;;;;;;;5111714;28;1967;-50
2022/10/16 06:19:52;;;;;;;;;;;;;;;;;;5111119;28;1793;-50
2022/10/16 06:22:19;;;;;;;;;;;;;;;;;;5111567;28;1693;-48
2022/10/16 06:24:47;;;;;;;;;;;;;;;;;;5111599;28;1981;-49
2022/10/16 06:27:14;;;;;;;;;;;;;;;;;;5111483;28;1873;-48
2022/10/16 06:29:42;;;;;;;;;;;;;;;;;;5111699;28;2137;-51
2022/10/16 06:32:09;;;;;;;;;;;;;;;;;;5111464;28;1844;-48
2022/10/16 06:34:40;;;;;;;;;;;;;;;;;;5093472;28;2159;-50
2022/10/16 06:37:11;;;;;;;;;;;;;;;;;;5090928;28;2034;-51
2022/10/16 06:39:38;;;;;;;;;;;;;;;;;;5093304;28;2049;-50
2022/10/16 06:42:05;;;;;;;;;;;;;;;;;;5094822;28;1510;-50
2022/10/16 06:44:35;;;;;;;;;;;;;;;;;;5094771;28;1901;-46
2022/10/16 06:47:03;;;;;;;;;;;;;;;;;;5094871;28;2297;-48
2022/10/16 06:49:30;;;;;;;;;;;;;;;;;;5094983;28;1994;-49
2022/10/16 06:51:57;;;;;;;;;;;;;;;;;;5094795;28;1563;-49
2022/10/16 06:54:24;;;;;;;;;;;;;;;;;;5094598;28;1526;-48
2022/10/16 06:56:53;;;;;;;;;;;;;;;;;;5094702;28;1910;-50
2022/10/16 06:59:21;;;;;;;;;;;;;;;;;;5094392;28;1892;-47
2022/10/16 07:01:48;;;;;;;;;;;;;;;;;;5094476;28;1961;-50
2022/10/16 07:04:15;;;;;;;;;;;;;;;;;;5094309;28;2103;-51
2022/10/16 07:06:42;;;;;;;;;;;;;;;;;;5094339;28;1925;-50
2022/10/16 07:09:10;;;;;;;;;;;;;;;;;;5094402;28;1860;-47
2022/10/16 07:11:38;;;;;;;;;;;;;;;;;;5094331;28;1844;-50
2022/10/16 07:14:10;;;;;;;;;;;;;;;;;;5094282;28;1801;-50
2022/10/16 07:16:37;;;;;;;;;;;;;;;;;;5094265;28;1908;-51
2022/10/16 07:19:04;;;;;;;;;;;;;;;;;;5094090;28;1804;-46
2022/10/16 07:21:36;;;;;;;;;;;;;;;;;;5094455;28;1969;-49
2022/10/16 07:24:04;;;;;;;;;;;;;;;;;;5094360;28;1720;-46
2022/10/16 07:26:33;;;;;;;;;;;;;;;;;;5094133;28;1875;-52
2022/10/16 07:29:00;;;;;;;;;;;;;;;;;;5094226;28;1511;-50
2022/10/16 07:31:28;;;;;;;;;;;;;;;;;;5092507;28;1955;-51
2022/10/16 07:33:55;;;;;;;;;;;;;;;;;;5093887;28;2230;-48
2022/10/16 07:36:22;;;;;;;;;;;;;;;;;;5093669;28;2151;-52
2022/10/16 07:38:49;;;;;;;;;;;;;;;;;;5093511;28;1908;-42
2022/10/16 07:41:20;;;;;;;;;;;;;;;;;;5093790;28;1605;-51
2022/10/16 07:43:47;;;;;;;;;;;;;;;;;;5093758;28;2166;-49
2022/10/16 07:46:16;;;;;;;;;;;;;;;;;;5093734;28;2256;-47
2022/10/16 07:48:47;;;;;;;;;;;;;;;;;;5093453;28;2008;-46
2022/10/16 07:51:17;;;;;;;;;;;;;;;;;;5093489;28;2276;-52
2022/10/16 07:53:44;;;;;;;;;;;;;;;;;;5093401;28;2149;-50
2022/10/16 07:56:11;;;;;;;;;;;;;;;;;;5096266;28;2171;-49
2022/10/16 07:58:39;;;;;;;;;;;;;;;;;;5113850;28;1791;-47
2022/10/16 08:01:08;;;;;;;;;;;;;;;;;;5113705;28;2091;-50
2022/10/16 08:03:36;;;;;;;;;;;;;;;;;;5113533;28;1473;-51
2022/10/16 08:06:04;;;;;;;;;;;;;;;;;;5113768;28;1850;-51
2022/10/16 08:08:31;;;;;;;;;;;;;;;;;;5113958;28;2106;-50
2022/10/16 08:11:00;;;;;;;;;;;;;;;;;;5113459;28;1829;-52
2022/10/16 08:13:27;;;;;;;;;;;;;;;;;;5113306;28;1793;-48
2022/10/16 08:15:55;;;;;;;;;;;;;;;;;;5113544;27;1906;-48
2022/10/16 08:18:22;;;;;;;;;;;;;;;;;;5113454;28;1776;-53
2022/10/16 08:20:55;;;;;;;;;;;;;;;;;;5113480;28;2236;-49
2022/10/16 08:23:22;;;;;;;;;;;;;;;;;;5113315;28;1983;-52
2022/10/16 08:25:49;;;;;;;;;;;;;;;;;;5113099;28;1912;-50
2022/10/16 08:28:16;;;;;;;;;;;;;;;;;;5113200;28;1655;-49
2022/10/16 08:30:43;;;;;;;;;;;;;;;;;;5113236;28;2098;-49
2022/10/16 08:33:10;;;;;;;;;;;;;;;;;;5107302;28;2238;-48
2022/10/16 08:35:37;;;;;;;;;;;;;;;;;;5092439;28;2266;-49
2022/10/16 08:38:05;;;;;;;;;;;;;;;;;;5092735;28;1977;-50
2022/10/16 08:40:34;;;;;;;;;;;;;;;;;;5092642;28;1883;-51
2022/10/16 08:43:07;;;;;;;;;;;;;;;;;;5092616;28;2277;-47
2022/10/16 08:46:02;;;;;;;;;;;;;;;;;;5092813;28;1748;-50
2022/10/16 08:48:40;;;;;;;;;;;;;;;;;;5092471;28;1841;-51
2022/10/16 08:51:09;;;;;;;;;;;;;;;;;;5092625;28;2131;-43
2022/10/16 08:53:40;;;;;;;;;;;;;;;;;;5092666;28;1470;-49
2022/10/16 08:56:08;;;;;;;;;;;;;;;;;;5092472;28;2004;-53
2022/10/16 08:58:35;;;;;;;;;;;;;;;;;;5092411;28;1806;-51
2022/10/16 09:01:04;;;;;;;;;;;;;;;;;;5091587;28;2086;-49
2022/10/16 09:03:50;;;;;;;;;;;;;;;;;;5104509;28;1893;-49
2022/10/16 09:06:32;;;;;;;;;;;;;;;;;;5092797;28;1743;-50
2022/10/16 09:09:14;;;;;;;;;;;;;;;;;;5091922;28;1893;-54
2022/10/16 09:11:45;;;;;;;;;;;;;;;;;;5091862;28;1782;-49
2022/10/16 09:14:36;;;;;;;;;;;;;;;;;;5091980;28;1675;-50
2022/10/16 09:17:12;;;;;;;;;;;;;;;;;;5091889;28;1983;-50
2022/10/16 09:19:56;;;;;;;;;;;;;;;;;;5091937;28;1810;-44
2022/10/16 09:22:27;;;;;;;;;;;;;;;;;;5091778;28;1930;-49
2022/10/16 09:24:58;;;;;;;;;;;;;;;;;;5091715;28;1671;-52
2022/10/16 09:27:26;;;;;;;;;;;;;;;;;;5091831;28;1760;-44
2022/10/16 09:29:55;;;;;;;;;;;;;;;;;;5091835;28;1895;-50
2022/10/16 09:32:28;;;;;;;;;;;;;;;;;;5091622;28;1482;-50
2022/10/16 09:34:58;;;;;;;;;;;;;;;;;;5091639;28;1939;-50
2022/10/16 09:37:25;;;;;;;;;;;;;;;;;;5090430;28;2035;-52
2022/10/16 09:39:53;;;;;;;;;;;;;;;;;;5091566;28;2132;-48
2022/10/16 09:42:23;;;;;;;;;;;;;;;;;;5091683;28;2030;-48
2022/10/16 09:44:51;;;;;;;;;;;;;;;;;;5091485;28;1985;-52
2022/10/16 09:47:20;;;;;;;;;;;;;;;;;;5091329;28;1923;-48
2022/10/16 09:49:51;;;;;;;;;;;;;;;;;;5091571;28;2119;-48
2022/10/16 09:52:19;;;;;;;;;;;;;;;;;;5091670;28;2188;-48
2022/10/16 09:54:54;;;;;;;;;;;;;;;;;;5091439;28;1591;-53
2022/10/16 09:57:22;;;;;;;;;;;;;;;;;;5091177;28;2043;-41
2022/10/16 09:59:50;;;;;;;;;;;;;;;;;;5091251;28;1796;-41
2022/10/16 10:02:19;;;;;;;;;;;;;;;;;;5091281;28;1856;-41
2022/10/16 10:04:56;;;;;;;;;;;;;;;;;;5091475;28;2170;-41
2022/10/16 10:07:26;;;;;;;;;;;;;;;;;;5091235;28;2253;-48
2022/10/16 10:09:56;;;;;;;;;;;;;;;;;;5098328;28;1638;-40
2022/10/16 10:12:32;;;;;;;;;;;;;;;;;;5111459;28;1960;-42
2022/10/16 10:15:21;;;;;;;;;;;;;;;;;;5114715;28;2011;-43
2022/10/16 10:17:55;;;;;;;;;;;;;;;;;;5115808;28;1901;-41
2022/10/16 10:20:32;;;;;;;;;;;;;;;;;;5115481;28;1736;-42
2022/10/16 10:23:00;;;;;;;;;;;;;;;;;;5115669;28;1992;-42
2022/10/16 10:25:44;;;;;;;;;;;;;;;;;;5114457;28;1719;-45
2022/10/16 10:28:20;;;;;;;;;;;;;;;;;;5115767;28;2004;-51
2022/10/16 10:31:02;;;;;;;;;;;;;;;;;;5115394;28;1921;-40
2022/10/16 10:33:36;;;;;;;;;;;;;;;;;;5106484;28;1780;-41
2022/10/16 10:36:05;;;;;;;;;;;;;;;;;;5094841;28;2050;-41
2022/10/16 10:38:35;;;;;;;;;;;;;;;;;;5094943;28;2233;-42
2022/10/16 10:41:05;;;;;;;;;;;;;;;;;;5094866;28;1804;-47
2022/10/16 10:43:45;;;;;;;;;;;;;;;;;;5094983;28;1666;-42
2022/10/16 10:46:32;;;;;;;;;;;;;;;;;;5094955;28;1809;-42
2022/10/16 10:48:59;;;;;;;;;;;;;;;;;;5083584;28;2264;-49
2022/10/16 10:51:39;;;;;;;;;;;;;;;;;;5094722;28;2159;-49
2022/10/16 10:54:20;;;;;;;;;;;;;;;;;;5094714;28;1875;-47
2022/10/16 10:56:57;;;;;;;;;;;;;;;;;;5094646;28;1917;-42
2022/10/16 10:59:37;;;;;;;;;;;;;;;;;;5094532;28;1853;-41
2022/10/16 11:02:03;;;;;;;;;;;;;;;;;;5094343;28;1742;-51
2022/10/16 11:04:34;;;;;;;;;;;;;;;;;;5094506;28;1700;-42
2022/10/16 11:07:05;;;;;;;;;;;;;;;;;;5094540;28;2002;-49
2022/10/16 11:09:38;;;;;;;;;;;;;;;;;;5097252;28;1689;-42
2022/10/16 11:12:17;;;;;;;;;;;;;;;;;;5112117;28;1984;-41
2022/10/16 11:15:03;;;;;;;;;;;;;;;;;;5113348;28;1829;-42
2022/10/16 11:17:42;;;;;;;;;;;;;;;;;;5114455;28;2145;-42
2022/10/16 11:20:15;;;;;;;;;;;;;;;;;;5114519;28;1956;-41
2022/10/16 11:22:48;;;;;;;;;;;;;;;;;;5114575;28;2039;-51
2022/10/16 11:25:24;;;;;;;;;;;;;;;;;;5113994;28;2274;-42
2022/10/16 11:27:51;;;;;;;;;;;;;;;;;;5114556;28;1812;-41
2022/10/16 11:30:21;;;;;;;;;;;;;;;;;;5114435;28;2036;-43
2022/10/16 11:33:08;;;;;;;;;;;;;;;;;;5111480;28;1962;-41
2022/10/16 11:35:44;;;;;;;;;;;;;;;;;;5093227;28;1974;-51
2022/10/16 11:38:19;;;;;;;;;;;;;;;;;;5093783;28;2008;-45
2022/10/16 11:40:48;;;;;;;;;;;;;;;;;;5093927;28;1800;-50
2022/10/16 11:43:19;;;;;;;;;;;;;;;;;;5093961;28;1652;-41
2022/10/16 11:45:48;;;;;;;;;;;;;;;;;;5092388;28;2087;-40
2022/10/16 11:48:16;;;;;;;;;;;;;;;;;;5093957;28;1960;-41
2022/10/16 11:50:49;;;;;;;;;;;;;;;;;;5093637;28;2082;-41
2022/10/16 11:53:36;;;;;;;;;;;;;;;;;;5093861;28;2178;-41
2022/10/16 11:56:04;;;;;;;;;;;;;;;;;;5086437;28;1859;-41
2022/10/16 11:58:50;;;;;;;;;;;;;;;;;;5093330;28;1979;-42
2022/10/16 12:01:32;;;;;;;;;;;;;;;;;;5093450;28;1864;-42
2022/10/16 12:04:05;;;;;;;;;;;;;;;;;;5093443;28;1887;-41
2022/10/16 12:06:39;;;;;;;;;;;;;;;;;;5093094;28;2073;-43
2022/10/16 12:09:13;;;;;;;;;;;;;;;;;;5093191;28;1819;-42
2022/10/16 12:11:40;;;;;;;;;;;;;;;;;;5093201;28;2041;-43
2022/10/16 12:14:10;;;;;;;;;;;;;;;;;;5093236;28;1625;-54
2022/10/16 12:16:38;;;;;;;;;;;;;;;;;;5093164;28;2270;-43
2022/10/16 12:19:13;;;;;;;;;;;;;;;;;;5092927;28;1976;-42
2022/10/16 12:21:43;;;;;;;;;;;;;;;;;;5093055;28;2045;-43
2022/10/16 12:24:29;;;;;;;;;;;;;;;;;;5093120;28;1559;-43
2022/10/16 12:26:56;;;;;;;;;;;;;;;;;;5096209;28;1700;-50
2022/10/16 12:29:23;;;;;;;;;;;;;;;;;;5112170;28;1809;-43
2022/10/16 12:31:50;;;;;;;;;;;;;;;;;;5113220;28;1559;-41
2022/10/16 12:34:24;;;;;;;;;;;;;;;;;;5096973;28;1691;-42
2022/10/16 12:36:52;;;;;;;;;;;;;;;;;;5091794;28;2022;-41
2022/10/16 12:39:23;;;;;;;;;;;;;;;;;;5092879;28;1909;-41
2022/10/16 12:42:14;;;;;;;;;;;;;;;;;;5091632;28;1963;-42
2022/10/16 12:44:41;;;;;;;;;;;;;;;;;;5086990;28;1942;-41
2022/10/16 12:47:19;;;;;;;;;;;;;;;;;;5092430;28;1773;-50
2022/10/16 12:49:52;;;;;;;;;;;;;;;;;;5092542;28;1457;-48
2022/10/16 12:52:25;;;;;;;;;;;;;;;;;;5092561;28;1971;-41
2022/10/16 12:54:55;;;;;;;;;;;;;;;;;;5092293;28;1642;-52
2022/10/16 12:57:27;;;;;;;;;;;;;;;;;;5091997;28;2177;-48
2022/10/16 12:59:54;;;;;;;;;;;;;;;;;;5092389;28;2207;-50
2022/10/16 13:02:33;;;;;;;;;;;;;;;;;;5104876;28;1780;-46
2022/10/16 13:05:19;;;;;;;;;;;;;;;;;;5112011;28;1941;-50
2022/10/16 13:07:46;;;;;;;;;;;;;;;;;;5112414;28;1986;-50
2022/10/16 13:10:19;;;;;;;;;;;;;;;;;;5112421;28;2222;-52
2022/10/16 13:13:13;;;;;;;;;;;;;;;;;;5111059;28;2104;-55
2022/10/16 13:15:46;;;;;;;;;;;;;;;;;;5112221;28;1668;-51
2022/10/16 13:18:15;;;;;;;;;;;;;;;;;;5112257;28;1972;-53
2022/10/16 13:21:03;;;;;;;;;;;;;;;;;;5112329;28;2232;-50
2022/10/16 13:23:46;;;;;;;;;;;;;;;;;;5110169;28;1639;-54
2022/10/16 13:26:22;;;;;;;;;;;;;;;;;;5112139;28;1811;-51
2022/10/16 13:28:49;;;;;;;;;;;;;;;;;;5111867;28;2156;-52
2022/10/16 13:31:24;;;;;;;;;;;;;;;;;;5112080;28;2096;-54
2022/10/16 13:33:54;;;;;;;;;;;;;;;;;;5107352;28;1578;-52
2022/10/16 13:36:25;;;;;;;;;;;;;;;;;;5091542;28;1709;-52
2022/10/16 13:39:18;;;;;;;;;;;;;;;;;;5091683;28;1990;-52
2022/10/16 13:41:57;;;;;;;;;;;;;;;;;;5075881;28;1388;-52
2022/10/16 13:44:24;;;;;;;;;;;;;;;;;;5091700;28;1910;-51
2022/10/16 13:47:00;;;;;;;;;;;;;;;;;;5091686;28;1885;-53
2022/10/16 13:49:28;;;;;;;;;;;;;;;;;;5090940;28;2054;-49
2022/10/16 13:51:56;;;;;;;;;;;;;;;;;;5090344;28;1660;-52
2022/10/16 13:54:24;;;;;;;;;;;;;;;;;;5091364;28;2126;-53
2022/10/16 13:56:51;;;;;;;;;;;;;;;;;;5091394;28;1866;-53
2022/10/16 13:59:37;;;;;;;;;;;;;;;;;;5091118;28;2045;-54
2022/10/16 14:02:23;;;;;;;;;;;;;;;;;;5091178;28;2027;-52
2022/10/16 14:04:51;;;;;;;;;;;;;;;;;;5091371;28;1822;-52
2022/10/16 14:07:38;;;;;;;;;;;;;;;;;;5091372;28;1511;-51
2022/10/16 14:10:20;;;;;;;;;;;;;;;;;;5091355;28;1862;-53
2022/10/16 14:12:54;;;;;;;;;;;;;;;;;;5091285;28;2047;-49
2022/10/16 14:15:21;;;;;;;;;;;;;;;;;;5091185;28;1992;-49
2022/10/16 14:17:51;;;;;;;;;;;;;;;;;;5091113;28;1979;-49
2022/10/16 14:20:18;;;;;;;;;;;;;;;;;;5091123;28;2005;-41
2022/10/16 14:22:46;;;;;;;;;;;;;;;;;;5091248;28;1928;-51
2022/10/16 14:25:21;;;;;;;;;;;;;;;;;;5091143;28;1971;-50
2022/10/16 14:28:03;;;;;;;;;;;;;;;;;;5091200;28;1621;-51
2022/10/16 14:30:31;;;;;;;;;;;;;;;;;;5091292;28;1883;-41
2022/10/16 14:33:03;;;;;;;;;;;;;;;;;;5091220;28;1565;-49
2022/10/16 14:35:31;;;;;;;;;;;;;;;;;;5090686;28;2128;-42
2022/10/16 14:38:00;;;;;;;;;;;;;;;;;;5091237;28;2052;-50
2022/10/16 14:40:29;;;;;;;;;;;;;;;;;;5091133;28;1967;-53
2022/10/16 14:42:57;;;;;;;;;;;;;;;;;;5091136;28;1866;-41
2022/10/16 14:45:28;;;;;;;;;;;;;;;;;;5091022;28;1801;-41
2022/10/16 14:47:57;;;;;;;;;;;;;;;;;;5091085;28;1847;-49
2022/10/16 14:50:24;;;;;;;;;;;;;;;;;;5091026;28;1690;-49
2022/10/16 14:52:51;;;;;;;;;;;;;;;;;;5091225;28;2059;-53
2022/10/16 14:55:19;;;;;;;;;;;;;;;;;;5090734;28;1951;-52
2022/10/16 14:57:46;;;;;;;;;;;;;;;;;;5090746;28;2096;-49
2022/10/16 15:00:15;;;;;;;;;;;;;;;;;;5092572;28;1994;-52
2022/10/16 15:02:43;;;;;;;;;;;;;;;;;;5094503;28;1293;-49
2022/10/16 15:05:21;;;;;;;;;;;;;;;;;;5094469;28;1850;-50
2022/10/16 15:07:50;;;;;;;;;;;;;;;;;;5094385;28;1979;-54
2022/10/16 15:10:18;;;;;;;;;;;;;;;;;;5094231;28;2003;-53
2022/10/16 15:12:46;;;;;;;;;;;;;;;;;;5094332;28;1450;-45
2022/10/16 15:15:30;;;;;;;;;;;;;;;;;;5094308;28;1594;-54
2022/10/16 15:18:00;;;;;;;;;;;;;;;;;;5094424;28;1971;-50
2022/10/16 15:20:39;;;;;;;;;;;;;;;;;;5094832;28;2288;-50
2022/10/16 15:23:14;;;;;;;;;;;;;;;;;;5094314;28;1783;-50
2022/10/16 15:25:42;;;;;;;;;;;;;;;;;;5094061;28;1715;-49
2022/10/16 15:28:10;;;;;;;;;;;;;;;;;;5094169;28;1573;-50
2022/10/16 15:30:38;;;;;;;;;;;;;;;;;;5094379;28;1952;-50
2022/10/16 15:33:10;;;;;;;;;;;;;;;;;;5093804;28;1912;-54
2022/10/16 15:35:37;;;;;;;;;;;;;;;;;;5093963;28;2090;-52
2022/10/16 15:38:04;;;;;;;;;;;;;;;;;;5093713;28;1910;-53
2022/10/16 15:40:31;;;;;;;;;;;;;;;;;;5094071;28;2142;-48
2022/10/16 15:42:59;;;;;;;;;;;;;;;;;;5093929;28;1792;-52
2022/10/16 15:45:31;;;;;;;;;;;;;;;;;;5092063;28;1635;-53
2022/10/16 15:47:58;;;;;;;;;;;;;;;;;;5093038;28;1724;-52
2022/10/16 15:50:25;;;;;;;;;;;;;;;;;;5093023;28;2075;-52
2022/10/16 15:52:53;;;;;;;;;;;;;;;;;;5092927;28;1817;-51
2022/10/16 15:55:20;;;;;;;;;;;;;;;;;;5093267;28;2105;-53
2022/10/16 15:57:47;;;;;;;;;;;;;;;;;;5093087;28;1864;-51
2022/10/16 16:00:17;;;;;;;;;;;;;;;;;;5093200;28;1977;-53
2022/10/16 16:02:50;;;;;;;;;;;;;;;;;;5091779;28;2046;-51
2022/10/16 16:05:20;;;;;;;;;;;;;;;;;;5093469;28;2278;-53
2022/10/16 16:07:47;;;;;;;;;;;;;;;;;;5093420;28;1811;-52
2022/10/16 16:10:16;;;;;;;;;;;;;;;;;;5093106;28;1877;-53
2022/10/16 16:12:49;;;;;;;;;;;;;;;;;;5093258;28;1758;-56
2022/10/16 16:15:16;;;;;;;;;;;;;;;;;;5093117;28;2015;-53
2022/10/16 16:17:44;;;;;;;;;;;;;;;;;;5091886;28;1740;-53
2022/10/16 16:20:11;;;;;;;;;;;;;;;;;;5093118;28;2027;-53
2022/10/16 16:22:38;;;;;;;;;;;;;;;;;;5092988;28;2277;-50
2022/10/16 16:25:09;;;;;;;;;;;;;;;;;;5092744;28;1511;-53
2022/10/16 16:27:40;;;;;;;;;;;;;;;;;;5092835;28;1632;-50
2022/10/16 16:30:07;;;;;;;;;;;;;;;;;;5092845;28;1957;-46
2022/10/16 16:32:34;;;;;;;;;;;;;;;;;;5093853;28;1640;-50
2022/10/16 16:35:04;;;;;;;;;;;;;;;;;;5113342;27;2079;-47
2022/10/16 16:37:32;;;;;;;;;;;;;;;;;;5113062;28;1588;-50
2022/10/16 16:40:02;;;;;;;;;;;;;;;;;;5112722;28;2165;-50
2022/10/16 16:42:29;;;;;;;;;;;;;;;;;;5112883;28;1991;-50
2022/10/16 16:44:56;;;;;;;;;;;;;;;;;;5113158;28;1650;-51
2022/10/16 16:47:23;;;;;;;;;;;;;;;;;;5112862;28;2094;-51
2022/10/16 16:49:51;;;;;;;;;;;;;;;;;;5112936;28;1739;-51
2022/10/16 16:52:19;;;;;;;;;;;;;;;;;;5112628;28;2015;-48
2022/10/16 16:54:51;;;;;;;;;;;;;;;;;;5112861;28;1977;-51
2022/10/16 16:57:19;;;;;;;;;;;;;;;;;;5105779;28;2164;-48
2022/10/16 16:59:46;;;;;;;;;;;;;;;;;;5092812;28;1983;-47
2022/10/16 17:02:14;;;;;;;;;;;;;;;;;;5091627;28;1669;-50
2022/10/16 17:04:42;;;;;;;;;;;;;;;;;;5090739;28;1829;-47
2022/10/16 17:07:09;;;;;;;;;;;;;;;;;;5090729;28;1914;-46
2022/10/16 17:09:36;;;;;;;;;;;;;;;;;;5091740;28;1699;-52
2022/10/16 17:12:04;;;;;;;;;;;;;;;;;;5092415;28;2143;-49
2022/10/16 17:14:32;;;;;;;;;;;;;;;;;;5092050;28;1932;-52
2022/10/16 17:17:00;;;;;;;;;;;;;;;;;;5091036;28;2042;-51
2022/10/16 17:19:27;;;;;;;;;;;;;;;;;;5090258;28;1910;-53
2022/10/16 17:21:55;;;;;;;;;;;;;;;;;;5090569;28;2070;-48
2022/10/16 17:24:23;;;;;;;;;;;;;;;;;;5090785;28;2232;-52